sensor_id;sensor_type;location;lat;lon;timestamp;P1;durP1;ratioP1;P2;durP2;ratioP2
4754;SDS011;2391;47.212;7.542;2024-01-15T00:02:23;19.33;;;9.27;;
4754;SDS011;2391;47.212;7.542;2024-01-15T00:04:49;14.60;;;8.87;;
4754;SDS011;2391;47.212;7.542;2024-01-15T00:07:15;15.87;;;7.80;;
4754;SDS011;2391;47.212;7.542;2024-01-15T00:09:40;19.10;;;10.47;;
4754;SDS011;2391;47.212;7.542;2024-01-15T00:12:06;17.00;;;10.27;;
4754;SDS011;2391;47.212;7.542;2024-01-15T00:14:32;22.87;;;8.67;;
4754;SDS011;2391;47.212;7.542;2024-01-15T00:16:58;18.70;;;9.63;;
4754;SDS011;2391;47.212;7.542;2024-01-15T00:19:24;16.00;;;8.90;;
4754;SDS011;2391;47.212;7.542;2024-01-15T00:21:50;19.93;;;8.27;;
4754;SDS011;2391;47.212;7.542;2024-01-15T00:24:16;15.33;;;7.90;;
4754;SDS011;2391;47.212;7.542;2024-01-15T00:26:42;17.00;;;8.57;;
4754;SDS011;2391;47.212;7.542;2024-01-15T00:29:08;21.10;;;9.80;;
4754;SDS011;2391;47.212;7.542;2024-01-15T00:31:34;14.80;;;7.93;;
4754;SDS011;2391;47.212;7.542;2024-01-15T00:34:00;17.40;;;8.73;;
4754;SDS011;2391;47.212;7.542;2024-01-15T00:36:26;15.20;;;8.27;;
4754;SDS011;2391;47.212;7.542;2024-01-15T00:38:52;18.87;;;7.90;;
4754;SDS011;2391;47.212;7.542;2024-01-15T00:41:19;16.37;;;8.03;;
4754;SDS011;2391;47.212;7.542;2024-01-15T00:43:45;14.40;;;8.13;;
4754;SDS011;2391;47.212;7.542;2024-01-15T00:46:11;19.63;;;8.70;;
4754;SDS011;2391;47.212;7.542;2024-01-15T00:48:37;15.90;;;8.30;;
4754;SDS011;2391;47.212;7.542;2024-01-15T00:51:07;13.77;;;7.83;;
4754;SDS011;2391;47.212;7.542;2024-01-15T00:53:31;15.90;;;8.20;;
4754;SDS011;2391;47.212;7.542;2024-01-15T00:55:57;13.27;;;7.77;;
4754;SDS011;2391;47.212;7.542;2024-01-15T00:58:22;15.07;;;8.20;;
4754;SDS011;2391;47.212;7.542;2024-01-15T01:00:48;16.20;;;7.67;;
4754;SDS011;2391;47.212;7.542;2024-01-15T01:03:14;14.13;;;7.60;;
4754;SDS011;2391;47.212;7.542;2024-01-15T01:05:40;17.67;;;7.37;;
4754;SDS011;2391;47.212;7.542;2024-01-15T01:08:06;11.03;;;6.63;;
4754;SDS011;2391;47.212;7.542;2024-01-15T01:10:31;14.70;;;7.30;;
4754;SDS011;2391;47.212;7.542;2024-01-15T01:12:57;10.40;;;6.77;;
4754;SDS011;2391;47.212;7.542;2024-01-15T01:15:23;12.10;;;6.37;;
4754;SDS011;2391;47.212;7.542;2024-01-15T01:17:50;13.23;;;6.60;;
4754;SDS011;2391;47.212;7.542;2024-01-15T01:20:15;11.13;;;6.00;;
4754;SDS011;2391;47.212;7.542;2024-01-15T01:22:41;10.20;;;5.00;;
4754;SDS011;2391;47.212;7.542;2024-01-15T01:25:07;9.53;;;4.63;;
4754;SDS011;2391;47.212;7.542;2024-01-15T01:27:33;9.30;;;5.30;;
4754;SDS011;2391;47.212;7.542;2024-01-15T01:29:59;7.00;;;4.57;;
4754;SDS011;2391;47.212;7.542;2024-01-15T01:32:24;7.47;;;4.90;;
4754;SDS011;2391;47.212;7.542;2024-01-15T01:34:50;6.83;;;4.67;;
4754;SDS011;2391;47.212;7.542;2024-01-15T01:37:16;8.50;;;4.37;;
4754;SDS011;2391;47.212;7.542;2024-01-15T01:39:42;5.40;;;4.07;;
4754;SDS011;2391;47.212;7.542;2024-01-15T01:42:08;6.13;;;3.53;;
4754;SDS011;2391;47.212;7.542;2024-01-15T01:44:34;9.10;;;4.90;;
4754;SDS011;2391;47.212;7.542;2024-01-15T01:47:00;7.17;;;4.97;;
4754;SDS011;2391;47.212;7.542;2024-01-15T01:49:27;7.63;;;3.93;;
4754;SDS011;2391;47.212;7.542;2024-01-15T01:51:55;4.70;;;3.67;;
4754;SDS011;2391;47.212;7.542;2024-01-15T01:54:23;8.30;;;4.63;;
4754;SDS011;2391;47.212;7.542;2024-01-15T01:56:51;6.40;;;4.20;;
4754;SDS011;2391;47.212;7.542;2024-01-15T01:59:17;6.37;;;4.30;;
4754;SDS011;2391;47.212;7.542;2024-01-15T02:01:43;6.47;;;3.90;;
4754;SDS011;2391;47.212;7.542;2024-01-15T02:04:10;7.33;;;4.43;;
4754;SDS011;2391;47.212;7.542;2024-01-15T02:06:37;5.80;;;3.70;;
4754;SDS011;2391;47.212;7.542;2024-01-15T02:09:03;5.53;;;4.10;;
4754;SDS011;2391;47.212;7.542;2024-01-15T02:11:29;6.87;;;4.75;;
4754;SDS011;2391;47.212;7.542;2024-01-15T02:13:55;8.70;;;4.85;;
4754;SDS011;2391;47.212;7.542;2024-01-15T02:16:21;5.97;;;4.90;;
4754;SDS011;2391;47.212;7.542;2024-01-15T02:18:47;7.10;;;4.20;;
4754;SDS011;2391;47.212;7.542;2024-01-15T02:21:13;4.20;;;3.80;;
4754;SDS011;2391;47.212;7.542;2024-01-15T02:23:38;5.70;;;3.90;;
4754;SDS011;2391;47.212;7.542;2024-01-15T02:26:04;5.47;;;3.87;;
4754;SDS011;2391;47.212;7.542;2024-01-15T02:28:30;6.23;;;3.50;;
4754;SDS011;2391;47.212;7.542;2024-01-15T02:30:58;3.60;;;3.30;;
4754;SDS011;2391;47.212;7.542;2024-01-15T02:33:24;6.30;;;3.47;;
4754;SDS011;2391;47.212;7.542;2024-01-15T02:35:50;5.97;;;3.60;;
4754;SDS011;2391;47.212;7.542;2024-01-15T02:38:16;4.70;;;3.43;;
4754;SDS011;2391;47.212;7.542;2024-01-15T02:40:46;5.40;;;3.57;;
4754;SDS011;2391;47.212;7.542;2024-01-15T02:43:10;4.70;;;3.53;;
4754;SDS011;2391;47.212;7.542;2024-01-15T02:45:37;4.87;;;3.73;;
4754;SDS011;2391;47.212;7.542;2024-01-15T02:48:03;4.37;;;3.40;;
4754;SDS011;2391;47.212;7.542;2024-01-15T02:50:29;4.60;;;3.00;;
4754;SDS011;2391;47.212;7.542;2024-01-15T02:52:55;4.37;;;2.90;;
4754;SDS011;2391;47.212;7.542;2024-01-15T02:55:20;5.37;;;3.77;;
4754;SDS011;2391;47.212;7.542;2024-01-15T02:57:46;3.77;;;3.33;;
4754;SDS011;2391;47.212;7.542;2024-01-15T03:00:12;4.77;;;3.30;;
4754;SDS011;2391;47.212;7.542;2024-01-15T03:02:39;4.23;;;3.10;;
4754;SDS011;2391;47.212;7.542;2024-01-15T03:05:09;4.67;;;3.70;;
4754;SDS011;2391;47.212;7.542;2024-01-15T03:07:35;6.23;;;3.50;;
4754;SDS011;2391;47.212;7.542;2024-01-15T03:10:01;3.33;;;3.03;;
4754;SDS011;2391;47.212;7.542;2024-01-15T03:12:27;3.33;;;2.90;;
4754;SDS011;2391;47.212;7.542;2024-01-15T03:14:53;4.90;;;3.33;;
4754;SDS011;2391;47.212;7.542;2024-01-15T03:17:19;3.53;;;3.13;;
4754;SDS011;2391;47.212;7.542;2024-01-15T03:19:44;4.93;;;3.40;;
4754;SDS011;2391;47.212;7.542;2024-01-15T03:22:10;7.57;;;3.57;;
4754;SDS011;2391;47.212;7.542;2024-01-15T03:24:36;4.13;;;3.13;;
4754;SDS011;2391;47.212;7.542;2024-01-15T03:27:02;4.20;;;3.40;;
4754;SDS011;2391;47.212;7.542;2024-01-15T03:29:28;3.33;;;2.67;;
4754;SDS011;2391;47.212;7.542;2024-01-15T03:31:54;5.40;;;3.67;;
4754;SDS011;2391;47.212;7.542;2024-01-15T03:34:20;6.57;;;3.77;;
4754;SDS011;2391;47.212;7.542;2024-01-15T03:36:45;4.33;;;2.90;;
4754;SDS011;2391;47.212;7.542;2024-01-15T03:39:11;4.03;;;2.83;;
4754;SDS011;2391;47.212;7.542;2024-01-15T03:41:37;2.50;;;2.30;;
4754;SDS011;2391;47.212;7.542;2024-01-15T03:44:03;3.73;;;3.03;;
4754;SDS011;2391;47.212;7.542;2024-01-15T03:46:28;4.30;;;2.60;;
4754;SDS011;2391;47.212;7.542;2024-01-15T03:48:54;3.70;;;3.07;;
4754;SDS011;2391;47.212;7.542;2024-01-15T03:51:20;4.10;;;3.10;;
4754;SDS011;2391;47.212;7.542;2024-01-15T03:53:46;2.40;;;2.20;;
4754;SDS011;2391;47.212;7.542;2024-01-15T03:56:12;3.70;;;2.77;;
4754;SDS011;2391;47.212;7.542;2024-01-15T03:58:38;2.47;;;2.30;;
4754;SDS011;2391;47.212;7.542;2024-01-15T04:01:06;2.97;;;2.60;;
4754;SDS011;2391;47.212;7.542;2024-01-15T04:03:33;3.70;;;2.50;;
4754;SDS011;2391;47.212;7.542;2024-01-15T04:05:59;3.77;;;2.57;;
4754;SDS011;2391;47.212;7.542;2024-01-15T04:08:25;3.57;;;3.20;;
4754;SDS011;2391;47.212;7.542;2024-01-15T04:10:50;2.40;;;2.20;;
4754;SDS011;2391;47.212;7.542;2024-01-15T04:13:16;2.23;;;2.13;;
4754;SDS011;2391;47.212;7.542;2024-01-15T04:15:42;2.90;;;2.60;;
4754;SDS011;2391;47.212;7.542;2024-01-15T04:18:08;2.77;;;2.47;;
4754;SDS011;2391;47.212;7.542;2024-01-15T04:20:33;2.20;;;2.00;;
4754;SDS011;2391;47.212;7.542;2024-01-15T04:22:59;5.07;;;2.80;;
4754;SDS011;2391;47.212;7.542;2024-01-15T04:25:25;2.27;;;1.90;;
4754;SDS011;2391;47.212;7.542;2024-01-15T04:27:51;3.83;;;2.20;;
4754;SDS011;2391;47.212;7.542;2024-01-15T04:30:16;2.30;;;2.10;;
4754;SDS011;2391;47.212;7.542;2024-01-15T04:32:42;3.20;;;2.90;;
4754;SDS011;2391;47.212;7.542;2024-01-15T04:35:08;3.40;;;2.43;;
4754;SDS011;2391;47.212;7.542;2024-01-15T04:37:34;5.47;;;1.90;;
4754;SDS011;2391;47.212;7.542;2024-01-15T04:39:59;2.03;;;1.90;;
4754;SDS011;2391;47.212;7.542;2024-01-15T04:42:25;3.40;;;3.10;;
4754;SDS011;2391;47.212;7.542;2024-01-15T04:44:51;2.43;;;2.23;;
4754;SDS011;2391;47.212;7.542;2024-01-15T04:47:17;1.77;;;1.67;;
4754;SDS011;2391;47.212;7.542;2024-01-15T04:49:43;3.20;;;2.03;;
4754;SDS011;2391;47.212;7.542;2024-01-15T04:52:08;2.40;;;1.50;;
4754;SDS011;2391;47.212;7.542;2024-01-15T04:54:38;1.53;;;1.43;;
4754;SDS011;2391;47.212;7.542;2024-01-15T04:57:03;1.57;;;1.47;;
4754;SDS011;2391;47.212;7.542;2024-01-15T04:59:29;1.83;;;1.33;;
4754;SDS011;2391;47.212;7.542;2024-01-15T05:01:55;0.93;;;0.90;;
4754;SDS011;2391;47.212;7.542;2024-01-15T05:04:21;0.97;;;0.97;;
4754;SDS011;2391;47.212;7.542;2024-01-15T05:06:46;1.07;;;1.07;;
4754;SDS011;2391;47.212;7.542;2024-01-15T05:09:12;1.33;;;1.23;;
4754;SDS011;2391;47.212;7.542;2024-01-15T05:11:41;1.13;;;1.10;;
4754;SDS011;2391;47.212;7.542;2024-01-15T05:14:06;1.20;;;1.10;;
4754;SDS011;2391;47.212;7.542;2024-01-15T05:16:32;1.23;;;1.13;;
4754;SDS011;2391;47.212;7.542;2024-01-15T05:18:59;1.17;;;1.17;;
4754;SDS011;2391;47.212;7.542;2024-01-15T05:21:24;1.40;;;1.40;;
4754;SDS011;2391;47.212;7.542;2024-01-15T05:23:50;1.30;;;1.20;;
4754;SDS011;2391;47.212;7.542;2024-01-15T05:26:16;1.20;;;1.20;;
4754;SDS011;2391;47.212;7.542;2024-01-15T05:28:42;1.33;;;1.23;;
4754;SDS011;2391;47.212;7.542;2024-01-15T05:31:10;1.00;;;1.00;;
4754;SDS011;2391;47.212;7.542;2024-01-15T05:33:36;2.07;;;1.30;;
4754;SDS011;2391;47.212;7.542;2024-01-15T05:36:03;2.83;;;1.33;;
4754;SDS011;2391;47.212;7.542;2024-01-15T05:38:29;1.50;;;1.40;;
4754;SDS011;2391;47.212;7.542;2024-01-15T05:40:55;1.30;;;1.20;;
4754;SDS011;2391;47.212;7.542;2024-01-15T05:43:20;1.83;;;1.43;;
4754;SDS011;2391;47.212;7.542;2024-01-15T05:45:46;1.63;;;1.40;;
4754;SDS011;2391;47.212;7.542;2024-01-15T05:48:12;1.67;;;1.57;;
4754;SDS011;2391;47.212;7.542;2024-01-15T05:50:38;1.50;;;1.40;;
4754;SDS011;2391;47.212;7.542;2024-01-15T05:53:04;1.10;;;1.00;;
4754;SDS011;2391;47.212;7.542;2024-01-15T05:55:30;1.00;;;1.00;;
4754;SDS011;2391;47.212;7.542;2024-01-15T05:57:56;0.90;;;0.90;;
4754;SDS011;2391;47.212;7.542;2024-01-15T06:00:22;0.90;;;0.90;;
4754;SDS011;2391;47.212;7.542;2024-01-15T06:02:47;1.10;;;1.10;;
4754;SDS011;2391;47.212;7.542;2024-01-15T06:05:13;1.20;;;1.20;;
4754;SDS011;2391;47.212;7.542;2024-01-15T06:07:39;1.00;;;1.00;;
4754;SDS011;2391;47.212;7.542;2024-01-15T06:10:05;1.53;;;1.00;;
4754;SDS011;2391;47.212;7.542;2024-01-15T06:12:31;1.10;;;1.00;;
4754;SDS011;2391;47.212;7.542;2024-01-15T06:14:59;1.50;;;1.40;;
4754;SDS011;2391;47.212;7.542;2024-01-15T06:17:24;1.13;;;1.03;;
4754;SDS011;2391;47.212;7.542;2024-01-15T06:19:50;2.13;;;1.00;;
4754;SDS011;2391;47.212;7.542;2024-01-15T06:22:16;1.80;;;1.60;;
4754;SDS011;2391;47.212;7.542;2024-01-15T06:24:43;3.60;;;2.40;;
4754;SDS011;2391;47.212;7.542;2024-01-15T06:27:08;2.30;;;2.07;;
4754;SDS011;2391;47.212;7.542;2024-01-15T06:29:37;2.90;;;2.43;;
4754;SDS011;2391;47.212;7.542;2024-01-15T06:32:03;2.43;;;2.17;;
4754;SDS011;2391;47.212;7.542;2024-01-15T06:34:29;2.10;;;2.00;;
4754;SDS011;2391;47.212;7.542;2024-01-15T06:36:55;1.93;;;1.83;;
4754;SDS011;2391;47.212;7.542;2024-01-15T06:39:21;2.87;;;1.97;;
4754;SDS011;2391;47.212;7.542;2024-01-15T06:41:47;2.50;;;2.30;;
4754;SDS011;2391;47.212;7.542;2024-01-15T06:44:13;2.47;;;2.27;;
4754;SDS011;2391;47.212;7.542;2024-01-15T06:46:42;2.37;;;2.17;;
4754;SDS011;2391;47.212;7.542;2024-01-15T06:49:09;2.47;;;2.27;;
4754;SDS011;2391;47.212;7.542;2024-01-15T06:51:35;2.47;;;2.27;;
4754;SDS011;2391;47.212;7.542;2024-01-15T06:54:01;3.07;;;2.40;;
4754;SDS011;2391;47.212;7.542;2024-01-15T06:56:27;2.37;;;2.17;;
4754;SDS011;2391;47.212;7.542;2024-01-15T06:58:53;1.30;;;1.20;;
4754;SDS011;2391;47.212;7.542;2024-01-15T07:01:19;1.00;;;1.00;;
4754;SDS011;2391;47.212;7.542;2024-01-15T07:03:45;1.03;;;1.00;;
4754;SDS011;2391;47.212;7.542;2024-01-15T07:06:11;0.93;;;0.83;;
4754;SDS011;2391;47.212;7.542;2024-01-15T07:08:37;0.83;;;0.83;;
4754;SDS011;2391;47.212;7.542;2024-01-15T07:11:05;1.07;;;1.07;;
4754;SDS011;2391;47.212;7.542;2024-01-15T07:13:31;1.30;;;1.20;;
4754;SDS011;2391;47.212;7.542;2024-01-15T07:15:57;1.10;;;1.10;;
4754;SDS011;2391;47.212;7.542;2024-01-15T07:18:23;0.80;;;0.80;;
4754;SDS011;2391;47.212;7.542;2024-01-15T07:20:49;1.10;;;1.10;;
4754;SDS011;2391;47.212;7.542;2024-01-15T07:23:14;0.90;;;0.90;;
4754;SDS011;2391;47.212;7.542;2024-01-15T07:25:40;1.40;;;1.10;;
4754;SDS011;2391;47.212;7.542;2024-01-15T07:28:06;1.37;;;0.67;;
4754;SDS011;2391;47.212;7.542;2024-01-15T07:30:32;1.00;;;1.00;;
4754;SDS011;2391;47.212;7.542;2024-01-15T07:32:58;2.67;;;0.73;;
4754;SDS011;2391;47.212;7.542;2024-01-15T07:35:24;0.90;;;0.90;;
4754;SDS011;2391;47.212;7.542;2024-01-15T07:37:50;1.00;;;1.00;;
4754;SDS011;2391;47.212;7.542;2024-01-15T07:40:15;1.00;;;0.90;;
4754;SDS011;2391;47.212;7.542;2024-01-15T07:42:41;0.67;;;0.67;;
4754;SDS011;2391;47.212;7.542;2024-01-15T07:45:10;1.00;;;0.90;;
4754;SDS011;2391;47.212;7.542;2024-01-15T07:47:36;1.00;;;1.00;;
4754;SDS011;2391;47.212;7.542;2024-01-15T07:50:02;0.93;;;0.93;;
4754;SDS011;2391;47.212;7.542;2024-01-15T07:52:30;0.87;;;0.87;;
4754;SDS011;2391;47.212;7.542;2024-01-15T07:54:56;1.30;;;1.20;;
4754;SDS011;2391;47.212;7.542;2024-01-15T07:57:22;1.20;;;1.10;;
4754;SDS011;2391;47.212;7.542;2024-01-15T07:59:48;1.40;;;1.30;;
4754;SDS011;2391;47.212;7.542;2024-01-15T08:02:15;0.90;;;0.90;;
4754;SDS011;2391;47.212;7.542;2024-01-15T08:04:41;1.00;;;1.00;;
4754;SDS011;2391;47.212;7.542;2024-01-15T08:07:08;1.30;;;1.20;;
4754;SDS011;2391;47.212;7.542;2024-01-15T08:09:34;1.50;;;1.40;;
4754;SDS011;2391;47.212;7.542;2024-01-15T08:12:00;1.30;;;1.20;;
4754;SDS011;2391;47.212;7.542;2024-01-15T08:14:26;1.70;;;1.60;;
4754;SDS011;2391;47.212;7.542;2024-01-15T08:16:52;1.30;;;1.20;;
4754;SDS011;2391;47.212;7.542;2024-01-15T08:19:18;1.33;;;1.00;;
4754;SDS011;2391;47.212;7.542;2024-01-15T08:21:45;2.40;;;1.30;;
4754;SDS011;2391;47.212;7.542;2024-01-15T08:24:11;3.90;;;1.20;;
4754;SDS011;2391;47.212;7.542;2024-01-15T08:26:37;1.07;;;1.00;;
4754;SDS011;2391;47.212;7.542;2024-01-15T08:29:02;1.20;;;1.10;;
4754;SDS011;2391;47.212;7.542;2024-01-15T08:31:28;1.50;;;1.40;;
4754;SDS011;2391;47.212;7.542;2024-01-15T08:33:54;1.00;;;1.00;;
4754;SDS011;2391;47.212;7.542;2024-01-15T08:36:21;1.10;;;1.10;;
4754;SDS011;2391;47.212;7.542;2024-01-15T08:38:47;1.10;;;1.00;;
4754;SDS011;2391;47.212;7.542;2024-01-15T08:41:13;1.10;;;1.10;;
4754;SDS011;2391;47.212;7.542;2024-01-15T08:43:39;1.10;;;1.10;;
4754;SDS011;2391;47.212;7.542;2024-01-15T08:46:05;1.47;;;1.20;;
4754;SDS011;2391;47.212;7.542;2024-01-15T08:48:31;1.20;;;1.20;;
4754;SDS011;2391;47.212;7.542;2024-01-15T08:50:57;1.17;;;1.17;;
4754;SDS011;2391;47.212;7.542;2024-01-15T08:53:23;1.23;;;1.13;;
4754;SDS011;2391;47.212;7.542;2024-01-15T08:55:49;1.50;;;1.20;;
4754;SDS011;2391;47.212;7.542;2024-01-15T08:58:15;1.60;;;1.50;;
4754;SDS011;2391;47.212;7.542;2024-01-15T09:00:41;1.50;;;1.40;;
4754;SDS011;2391;47.212;7.542;2024-01-15T09:03:07;1.37;;;1.07;;
4754;SDS011;2391;47.212;7.542;2024-01-15T09:05:36;1.63;;;1.53;;
4754;SDS011;2391;47.212;7.542;2024-01-15T09:08:03;1.37;;;1.27;;
4754;SDS011;2391;47.212;7.542;2024-01-15T09:10:29;1.50;;;1.40;;
4754;SDS011;2391;47.212;7.542;2024-01-15T09:12:55;1.90;;;1.80;;
4754;SDS011;2391;47.212;7.542;2024-01-15T09:15:21;1.73;;;1.63;;
4754;SDS011;2391;47.212;7.542;2024-01-15T09:17:47;1.60;;;1.50;;
4754;SDS011;2391;47.212;7.542;2024-01-15T09:20:13;1.50;;;1.40;;
4754;SDS011;2391;47.212;7.542;2024-01-15T09:22:39;1.57;;;1.47;;
4754;SDS011;2391;47.212;7.542;2024-01-15T09:25:08;2.10;;;1.63;;
4754;SDS011;2391;47.212;7.542;2024-01-15T09:27:37;1.27;;;1.20;;
4754;SDS011;2391;47.212;7.542;2024-01-15T09:30:03;1.90;;;1.60;;
4754;SDS011;2391;47.212;7.542;2024-01-15T09:32:30;1.47;;;1.37;;
4754;SDS011;2391;47.212;7.542;2024-01-15T09:34:58;1.80;;;1.27;;
4754;SDS011;2391;47.212;7.542;2024-01-15T09:37:26;1.97;;;1.53;;
4754;SDS011;2391;47.212;7.542;2024-01-15T09:39:51;5.00;;;1.90;;
4754;SDS011;2391;47.212;7.542;2024-01-15T09:42:18;1.53;;;1.23;;
4754;SDS011;2391;47.212;7.542;2024-01-15T09:44:45;1.40;;;1.33;;
4754;SDS011;2391;47.212;7.542;2024-01-15T09:47:12;1.70;;;1.60;;
4754;SDS011;2391;47.212;7.542;2024-01-15T09:49:38;1.80;;;1.70;;
4754;SDS011;2391;47.212;7.542;2024-01-15T09:52:05;1.40;;;1.30;;
4754;SDS011;2391;47.212;7.542;2024-01-15T09:54:33;1.83;;;1.73;;
4754;SDS011;2391;47.212;7.542;2024-01-15T09:56:59;1.80;;;1.57;;
4754;SDS011;2391;47.212;7.542;2024-01-15T09:59:26;2.60;;;1.50;;
4754;SDS011;2391;47.212;7.542;2024-01-15T10:01:53;4.47;;;2.00;;
4754;SDS011;2391;47.212;7.542;2024-01-15T10:04:22;2.33;;;1.53;;
4754;SDS011;2391;47.212;7.542;2024-01-15T10:06:50;1.50;;;1.40;;
4754;SDS011;2391;47.212;7.542;2024-01-15T10:09:17;1.57;;;1.40;;
4754;SDS011;2391;47.212;7.542;2024-01-15T10:11:43;1.40;;;1.30;;
4754;SDS011;2391;47.212;7.542;2024-01-15T10:14:10;1.47;;;1.37;;
4754;SDS011;2391;47.212;7.542;2024-01-15T10:16:40;1.63;;;1.53;;
4754;SDS011;2391;47.212;7.542;2024-01-15T10:19:07;1.70;;;1.60;;
4754;SDS011;2391;47.212;7.542;2024-01-15T10:21:34;1.53;;;1.43;;
4754;SDS011;2391;47.212;7.542;2024-01-15T10:24:01;1.67;;;1.57;;
4754;SDS011;2391;47.212;7.542;2024-01-15T10:26:29;2.50;;;1.80;;
4754;SDS011;2391;47.212;7.542;2024-01-15T10:28:56;1.27;;;1.17;;
4754;SDS011;2391;47.212;7.542;2024-01-15T10:31:21;1.93;;;1.80;;
4754;SDS011;2391;47.212;7.542;2024-01-15T10:33:48;1.83;;;1.73;;
4754;SDS011;2391;47.212;7.542;2024-01-15T10:36:14;2.10;;;1.90;;
4754;SDS011;2391;47.212;7.542;2024-01-15T10:38:42;1.67;;;1.20;;
4754;SDS011;2391;47.212;7.542;2024-01-15T10:41:09;1.60;;;1.50;;
4754;SDS011;2391;47.212;7.542;2024-01-15T10:43:35;2.77;;;1.63;;
4754;SDS011;2391;47.212;7.542;2024-01-15T10:46:01;1.87;;;1.77;;
4754;SDS011;2391;47.212;7.542;2024-01-15T10:48:27;3.13;;;1.50;;
4754;SDS011;2391;47.212;7.542;2024-01-15T10:50:56;1.27;;;1.17;;
4754;SDS011;2391;47.212;7.542;2024-01-15T10:53:25;1.53;;;1.37;;
4754;SDS011;2391;47.212;7.542;2024-01-15T10:55:53;1.63;;;1.50;;
4754;SDS011;2391;47.212;7.542;2024-01-15T10:58:20;1.53;;;1.43;;
4754;SDS011;2391;47.212;7.542;2024-01-15T11:00:48;1.70;;;1.60;;
4754;SDS011;2391;47.212;7.542;2024-01-15T11:03:14;2.00;;;1.80;;
4754;SDS011;2391;47.212;7.542;2024-01-15T11:05:42;1.57;;;1.40;;
4754;SDS011;2391;47.212;7.542;2024-01-15T11:08:09;1.73;;;1.63;;
4754;SDS011;2391;47.212;7.542;2024-01-15T11:10:47;2.27;;;1.80;;
4754;SDS011;2391;47.212;7.542;2024-01-15T11:16:01;2.20;;;2.00;;
4754;SDS011;2391;47.212;7.542;2024-01-15T11:18:43;1.67;;;1.57;;
4754;SDS011;2391;47.212;7.542;2024-01-15T11:23:47;3.40;;;2.33;;
4754;SDS011;2391;47.212;7.542;2024-01-15T11:26:34;3.23;;;2.13;;
4754;SDS011;2391;47.212;7.542;2024-01-15T11:29:06;1.90;;;1.80;;
4754;SDS011;2391;47.212;7.542;2024-01-15T11:34:07;1.70;;;1.57;;
4754;SDS011;2391;47.212;7.542;2024-01-15T11:42:03;1.23;;;1.10;;
4754;SDS011;2391;47.212;7.542;2024-01-15T11:44:28;1.60;;;1.50;;
4754;SDS011;2391;47.212;7.542;2024-01-15T11:52:16;0.70;;;0.70;;
4754;SDS011;2391;47.212;7.542;2024-01-15T11:54:49;1.70;;;0.90;;
4754;SDS011;2391;47.212;7.542;2024-01-15T11:57:41;2.10;;;0.80;;
4754;SDS011;2391;47.212;7.542;2024-01-15T12:00:10;0.83;;;0.83;;
4754;SDS011;2391;47.212;7.542;2024-01-15T12:02:40;0.60;;;0.60;;
4754;SDS011;2391;47.212;7.542;2024-01-15T12:05:07;0.80;;;0.80;;
4754;SDS011;2391;47.212;7.542;2024-01-15T12:07:34;0.50;;;0.50;;
4754;SDS011;2391;47.212;7.542;2024-01-15T12:10:00;0.90;;;0.90;;
4754;SDS011;2391;47.212;7.542;2024-01-15T12:12:35;1.83;;;1.10;;
4754;SDS011;2391;47.212;7.542;2024-01-15T12:15:03;0.60;;;0.60;;
4754;SDS011;2391;47.212;7.542;2024-01-15T12:17:29;0.67;;;0.67;;
4754;SDS011;2391;47.212;7.542;2024-01-15T12:19:58;0.60;;;0.60;;
4754;SDS011;2391;47.212;7.542;2024-01-15T12:22:24;0.40;;;0.40;;
4754;SDS011;2391;47.212;7.542;2024-01-15T12:24:50;0.60;;;0.60;;
4754;SDS011;2391;47.212;7.542;2024-01-15T12:27:16;0.50;;;0.50;;
4754;SDS011;2391;47.212;7.542;2024-01-15T12:29:41;0.40;;;0.40;;
4754;SDS011;2391;47.212;7.542;2024-01-15T12:32:08;0.40;;;0.40;;
4754;SDS011;2391;47.212;7.542;2024-01-15T12:34:34;0.73;;;0.40;;
4754;SDS011;2391;47.212;7.542;2024-01-15T12:37:00;0.40;;;0.40;;
4754;SDS011;2391;47.212;7.542;2024-01-15T12:39:26;1.30;;;0.43;;
4754;SDS011;2391;47.212;7.542;2024-01-15T12:41:51;0.60;;;0.40;;
4754;SDS011;2391;47.212;7.542;2024-01-15T12:44:18;0.50;;;0.50;;
4754;SDS011;2391;47.212;7.542;2024-01-15T12:46:44;3.93;;;0.60;;
4754;SDS011;2391;47.212;7.542;2024-01-15T12:49:10;0.50;;;0.50;;
4754;SDS011;2391;47.212;7.542;2024-01-15T12:51:38;0.50;;;0.50;;
4754;SDS011;2391;47.212;7.542;2024-01-15T12:54:04;0.40;;;0.40;;
4754;SDS011;2391;47.212;7.542;2024-01-15T12:56:30;0.40;;;0.40;;
4754;SDS011;2391;47.212;7.542;2024-01-15T12:58:56;0.60;;;0.60;;
4754;SDS011;2391;47.212;7.542;2024-01-15T13:01:22;0.83;;;0.70;;
4754;SDS011;2391;47.212;7.542;2024-01-15T13:03:48;0.90;;;0.50;;
4754;SDS011;2391;47.212;7.542;2024-01-15T13:06:13;0.43;;;0.40;;
4754;SDS011;2391;47.212;7.542;2024-01-15T13:08:39;0.50;;;0.50;;
4754;SDS011;2391;47.212;7.542;2024-01-15T13:11:05;0.40;;;0.40;;
4754;SDS011;2391;47.212;7.542;2024-01-15T13:13:31;0.40;;;0.40;;
4754;SDS011;2391;47.212;7.542;2024-01-15T13:15:59;0.40;;;0.40;;
4754;SDS011;2391;47.212;7.542;2024-01-15T13:18:25;0.50;;;0.50;;
4754;SDS011;2391;47.212;7.542;2024-01-15T13:20:51;0.50;;;0.50;;
4754;SDS011;2391;47.212;7.542;2024-01-15T13:39:23;0.60;;;0.60;;
4754;SDS011;2391;47.212;7.542;2024-01-15T13:41:49;0.60;;;0.50;;
4754;SDS011;2391;47.212;7.542;2024-01-15T13:44:15;0.50;;;0.50;;
4754;SDS011;2391;47.212;7.542;2024-01-15T13:46:41;0.50;;;0.50;;
4754;SDS011;2391;47.212;7.542;2024-01-15T13:49:07;0.40;;;0.40;;
4754;SDS011;2391;47.212;7.542;2024-01-15T13:51:36;0.50;;;0.50;;
4754;SDS011;2391;47.212;7.542;2024-01-15T13:54:02;0.60;;;0.50;;
4754;SDS011;2391;47.212;7.542;2024-01-15T13:56:30;0.50;;;0.50;;
4754;SDS011;2391;47.212;7.542;2024-01-15T13:58:58;0.40;;;0.40;;
4754;SDS011;2391;47.212;7.542;2024-01-15T14:01:24;0.70;;;0.70;;
4754;SDS011;2391;47.212;7.542;2024-01-15T14:03:50;1.00;;;0.60;;
4754;SDS011;2391;47.212;7.542;2024-01-15T14:06:16;0.60;;;0.60;;
4754;SDS011;2391;47.212;7.542;2024-01-15T14:08:42;0.43;;;0.43;;
4754;SDS011;2391;47.212;7.542;2024-01-15T14:11:07;0.80;;;0.60;;
4754;SDS011;2391;47.212;7.542;2024-01-15T14:13:35;0.60;;;0.60;;
4754;SDS011;2391;47.212;7.542;2024-01-15T14:16:01;0.40;;;0.40;;
4754;SDS011;2391;47.212;7.542;2024-01-15T14:18:27;0.50;;;0.50;;
4754;SDS011;2391;47.212;7.542;2024-01-15T14:20:55;0.50;;;0.50;;
4754;SDS011;2391;47.212;7.542;2024-01-15T14:23:21;0.50;;;0.50;;
4754;SDS011;2391;47.212;7.542;2024-01-15T14:25:47;0.40;;;0.40;;
4754;SDS011;2391;47.212;7.542;2024-01-15T14:28:13;0.50;;;0.50;;
4754;SDS011;2391;47.212;7.542;2024-01-15T14:30:41;0.70;;;0.70;;
4754;SDS011;2391;47.212;7.542;2024-01-15T14:33:07;0.57;;;0.57;;
4754;SDS011;2391;47.212;7.542;2024-01-15T14:35:33;0.60;;;0.60;;
4754;SDS011;2391;47.212;7.542;2024-01-15T14:37:59;0.40;;;0.40;;
4754;SDS011;2391;47.212;7.542;2024-01-15T14:40:25;0.50;;;0.50;;
4754;SDS011;2391;47.212;7.542;2024-01-15T14:42:51;0.50;;;0.50;;
4754;SDS011;2391;47.212;7.542;2024-01-15T14:45:18;0.73;;;0.50;;
4754;SDS011;2391;47.212;7.542;2024-01-15T14:47:44;0.60;;;0.60;;
4754;SDS011;2391;47.212;7.542;2024-01-15T14:50:10;1.90;;;0.60;;
4754;SDS011;2391;47.212;7.542;2024-01-15T14:52:38;0.50;;;0.50;;
4754;SDS011;2391;47.212;7.542;2024-01-15T14:55:05;0.60;;;0.60;;
4754;SDS011;2391;47.212;7.542;2024-01-15T14:57:32;0.70;;;0.70;;
4754;SDS011;2391;47.212;7.542;2024-01-15T14:59:57;0.60;;;0.50;;
4754;SDS011;2391;47.212;7.542;2024-01-15T15:02:23;0.50;;;0.50;;
4754;SDS011;2391;47.212;7.542;2024-01-15T15:04:51;0.60;;;0.60;;
4754;SDS011;2391;47.212;7.542;2024-01-15T15:07:17;0.50;;;0.50;;
4754;SDS011;2391;47.212;7.542;2024-01-15T15:09:43;0.60;;;0.60;;
4754;SDS011;2391;47.212;7.542;2024-01-15T15:12:09;0.50;;;0.50;;
4754;SDS011;2391;47.212;7.542;2024-01-15T15:14:35;0.60;;;0.60;;
4754;SDS011;2391;47.212;7.542;2024-01-15T15:17:07;0.60;;;0.60;;
4754;SDS011;2391;47.212;7.542;2024-01-15T15:19:31;0.50;;;0.50;;
4754;SDS011;2391;47.212;7.542;2024-01-15T15:21:58;1.03;;;0.80;;
4754;SDS011;2391;47.212;7.542;2024-01-15T15:24:25;0.80;;;0.60;;
4754;SDS011;2391;47.212;7.542;2024-01-15T15:26:50;0.60;;;0.60;;
4754;SDS011;2391;47.212;7.542;2024-01-15T15:29:17;0.70;;;0.70;;
4754;SDS011;2391;47.212;7.542;2024-01-15T15:31:43;2.77;;;1.00;;
4754;SDS011;2391;47.212;7.542;2024-01-15T15:34:09;0.77;;;0.77;;
4754;SDS011;2391;47.212;7.542;2024-01-15T15:36:34;0.80;;;0.80;;
4754;SDS011;2391;47.212;7.542;2024-01-15T15:39:00;1.03;;;0.80;;
4754;SDS011;2391;47.212;7.542;2024-01-15T15:41:26;1.00;;;0.87;;
4754;SDS011;2391;47.212;7.542;2024-01-15T15:43:53;1.37;;;1.17;;
4754;SDS011;2391;47.212;7.542;2024-01-15T15:46:20;1.50;;;1.40;;